Sheffield Township, Ohio
Current Conditions -  °F | °C
As of 3:53 AM on Friday 28 Nov 2014 (Local Time) from KLPR Reporting Station
Few Clouds Few Clouds  
Wind Chill:   Ceiling: Unl
Heat Index: 22°   Visibility: 10mi
Dew Point: 13°   Wind: 15mph
Humidity: 68%   Direction: 310°NW
Pressure: 30.32"   Gusts: NA
Location:  41.465°N, 82.0929°W
Report Text: KLPR 280853Z AUTO 31013KT 10SM FEW033 M06/M11 A3032 RMK AO2 SLP279 60000 T10561106 53016 TSNO
Loading
Personal Weather Stations






























Interactive Weather Map New forecast layout! Learn more

10-Day Weather Forecast

Advertisements
Track Severe Weather on mobile